| time (UTC) | temp F | wind direction | speed MPH | gust MPH | rain 1hr in | rain 24hr in | rain mn in | humidity % | barometer mb |
| 20260902194340 | 99 | 232 | 8.0 | 12.0 | 0.00 | 0.00 | 0.00 | 46 | 1013.4 |
| 20260902193338 | 99 | 219 | 7.0 | 11.0 | 0.00 | 0.00 | 0.00 | 46 | 1013.4 |
| 20260902192705 | 99 | 173 | 7.0 | 13.0 | 0.00 | 0.00 | 0.00 | 47 | 1013.5 |
| 20260902191334 | 99 | 184 | 7.0 | 14.0 | 0.00 | 0.00 | 0.00 | 45 | 1013.6 |
| 20260902190330 | 98 | 209 | 6.0 | 13.0 | 0.00 | 0.00 | 0.00 | 48 | 1013.6 |
| 20260902185334 | 98 | 241 | 7.0 | 14.0 | 0.00 | 0.00 | 0.00 | 47 | 1013.7 |
| 20260902184339 | 98 | 221 | 8.0 | 14.0 | 0.00 | 0.00 | 0.00 | 46 | 1013.9 |
| 20260902183338 | 98 | 198 | 8.0 | 14.0 | 0.00 | 0.00 | 0.00 | 46 | 1014.0 |
| 20260902182325 | 97 | 153 | 4.0 | 12.0 | 0.00 | 0.00 | 0.00 | 50 | 1014.0 |
| 20260902181704 | 96 | 238 | 9.0 | 14.0 | 0.00 | 0.00 | 0.00 | 49 | 1014.1 |
| 20260902180347 | 96 | 212 | 7.0 | 14.0 | 0.00 | 0.00 | 0.00 | 50 | 1014.3 |
| 20260902175325 | 96 | 210 | 9.0 | 13.0 | 0.00 | 0.00 | 0.00 | 48 | 1014.4 |
| 20260902174704 | 95 | 205 | 7.0 | 13.0 | 0.00 | 0.00 | 0.00 | 51 | 1014.7 |
| 20260902171359 | 95 | 217 | 6.0 | 12.0 | 0.00 | 0.00 | 0.00 | 51 | 1014.8 |
| 20260902170336 | 94 | 189 | 5.0 | 13.0 | 0.00 | 0.00 | 0.00 | 53 | 1014.9 |
| 20260902165342 | 94 | 210 | 6.0 | 13.0 | 0.00 | 0.00 | 0.00 | 52 | 1014.9 |
| 20260902164330 | 94 | 208 | 6.0 | 11.0 | 0.00 | 0.00 | 0.00 | 54 | 1015.0 |
| 20260902163348 | 93 | 205 | 5.0 | 11.0 | 0.00 | 0.00 | 0.00 | 54 | 1015.0 |
| 20260902162327 | 92 | 194 | 5.0 | 10.0 | 0.00 | 0.00 | 0.00 | 55 | 1015.1 |
| 20260902161331 | 92 | 255 | 6.0 | 10.0 | 0.00 | 0.00 | 0.00 | 54 | 1015.1 |
| 20260902160436 | 91 | 249 | 5.0 | 12.0 | 0.00 | 0.00 | 0.00 | 56 | 1015.0 |
| 20260902155323 | 91 | 217 | 5.0 | 10.0 | 0.00 | 0.00 | 0.00 | 58 | 1015.0 |
| 20260902154331 | 90 | 198 | 5.0 | 10.0 | 0.00 | 0.00 | 0.00 | 58 | 1014.9 |
| 20260902153326 | 89 | 211 | 4.0 | 12.0 | 0.00 | 0.00 | 0.00 | 59 | 1014.9 |
| 20260902152355 | 88 | 263 | 5.0 | 11.0 | 0.00 | 0.00 | 0.00 | 60 | 1014.9 |
| 20260902151341 | 88 | 250 | 7.0 | 11.0 | 0.00 | 0.00 | 0.00 | 59 | 1014.9 |
| 20260902150338 | 88 | 151 | 2.0 | 8.0 | 0.00 | 0.00 | 0.00 | 63 | 1014.8 |
| 20260902145324 | 87 | 179 | 3.0 | 7.0 | 0.00 | 0.00 | 0.00 | 64 | 1014.9 |
| 20260902144329 | 86 | 218 | 5.0 | 8.0 | 0.00 | 0.00 | 0.00 | 64 | 1014.9 |
| 20260902143346 | 85 | 205 | 3.0 | 6.0 | 0.00 | 0.00 | 0.00 | 66 | 1014.9 |
| 20260902142345 | 84 | 164 | 3.0 | 6.0 | 0.00 | 0.00 | 0.00 | 68 | 1014.8 |
| 20260902141331 | 83 | 205 | 4.0 | 7.0 | 0.00 | 0.00 | 0.00 | 70 | 1014.8 |
| 20260902140347 | 81 | 211 | 3.0 | 6.0 | 0.00 | 0.00 | 0.00 | 71 | 1014.8 |
| 20260902135327 | 80 | 197 | 3.0 | 6.0 | 0.00 | 0.00 | 0.00 | 73 | 1014.7 |
| 20260902134333 | 79 | 221 | 3.0 | 7.0 | 0.00 | 0.00 | 0.00 | 75 | 1014.8 |
| 20260902133330 | 78 | 233 | 4.0 | 6.0 | 0.00 | 0.00 | 0.00 | 77 | 1014.8 |
| 20260902132337 | 77 | 214 | 3.0 | 6.0 | 0.00 | 0.00 | 0.00 | 77 | 1014.8 |
| 20260902131322 | 76 | 249 | 3.0 | 5.0 | 0.00 | 0.00 | 0.00 | 78 | 1014.8 |
| 20260902130341 | 76 | 242 | 3.0 | 5.0 | 0.00 | 0.00 | 0.00 | 77 | 1014.8 |
| 20260902125328 | 75 | 243 | 2.0 | 4.0 | 0.00 | 0.00 | 0.00 | 81 | 1014.7 |
| 20260902124334 | 74 | 222 | 0.0 | 2.0 | 0.00 | 0.00 | 0.00 | 84 | 1014.8 |
| 20260902123334 | 72 | 241 | 0.0 | 1.0 | 0.00 | 0.00 | 0.00 | 87 | 1014.8 |
| 20260902122341 | 70 | 221 | 1.0 | 3.0 | 0.00 | 0.00 | 0.00 | 89 | 1014.8 |
| 20260902121328 | 69 | 219 | 0.0 | 1.0 | 0.00 | 0.00 | 0.00 | 89 | 1014.7 |
| 20260902120325 | 69 | 219 | 0.0 | 1.0 | 0.00 | 0.00 | 0.00 | 90 | 1014.6 |
| 20260902115332 | 68 | 229 | 0.0 | 1.0 | 0.00 | 0.00 | 0.00 | 88 | 1014.6 |
| 20260902114338 | 69 | 229 | 0.0 | 0.0 | 0.00 | 0.00 | 0.00 | 86 | 1014.7 |
| 20260902113336 | 70 | 229 | 0.0 | 0.0 | 0.00 | 0.00 | 0.00 | 84 | 1014.5 |
| 20260902112339 | 71 | 229 | 0.0 | 0.0 | 0.00 | 0.00 | 0.00 | 82 | 1014.5 |
| 20260902111327 | 71 | 229 | 0.0 | 0.0 | 0.00 | 0.00 | 0.00 | 83 | 1014.5 |
| 20260902110340 | 72 | 229 | 0.0 | 0.0 | 0.00 | 0.00 | 0.00 | 82 | 1014.5 |
| 20260902105341 | 71 | 229 | 0.0 | 2.0 | 0.00 | 0.00 | 0.00 | 84 | 1014.5 |
| 20260902104329 | 71 | 241 | 0.0 | 1.0 | 0.00 | 0.00 | 0.00 | 84 | 1014.5 |
| 20260902103346 | 71 | 240 | 0.0 | 0.0 | 0.00 | 0.00 | 0.00 | 83 | 1014.5 |
| 20260902102327 | 72 | 241 | 0.0 | 0.0 | 0.00 | 0.00 | 0.00 | 80 | 1014.5 |
| 20260902101335 | 72 | 241 | 0.0 | 0.0 | 0.00 | 0.00 | 0.00 | 79 | 1014.4 |
| 20260902100334 | 73 | 240 | 0.0 | 0.0 | 0.00 | 0.00 | 0.00 | 79 | 1014.4 |
| 20260902095341 | 73 | 241 | 0.0 | 0.0 | 0.00 | 0.00 | 0.00 | 79 | 1014.4 |
| 20260902094322 | 73 | 240 | 0.0 | 1.0 | 0.00 | 0.00 | 0.00 | 79 | 1014.3 |
| 20260902093340 | 73 | 240 | 0.0 | 0.0 | 0.00 | 0.00 | 0.00 | 79 | 1014.2 |
| 20260902092327 | 73 | 240 | 0.0 | 0.0 | 0.00 | 0.00 | 0.00 | 79 | 1014.2 |
| 20260902091352 | 73 | 240 | 0.0 | 1.0 | 0.00 | 0.00 | 0.00 | 79 | 1014.2 |
| 20260902090330 | 74 | 241 | 0.0 | 2.0 | 0.00 | 0.00 | 0.00 | 79 | 1014.2 |
| 20260902085336 | 74 | 246 | 0.0 | 1.0 | 0.00 | 0.00 | 0.00 | 79 | 1014.2 |
| 20260902084324 | 74 | 246 | 0.0 | 1.0 | 0.00 | 0.00 | 0.00 | 78 | 1014.2 |
| 20260902083323 | 74 | 246 | 0.0 | 1.0 | 0.00 | 0.00 | 0.00 | 77 | 1014.2 |
| 20260902082331 | 75 | 253 | 0.0 | 1.0 | 0.00 | 0.00 | 0.00 | 77 | 1014.2 |
| 20260902081337 | 75 | 259 | 1.0 | 2.0 | 0.00 | 0.00 | 0.00 | 76 | 1014.2 |
| 20260902080332 | 75 | 264 | 2.0 | 3.0 | 0.00 | 0.00 | 0.00 | 76 | 1014.1 |
| 20260902075339 | 75 | 258 | 2.0 | 3.0 | 0.00 | 0.00 | 0.00 | 75 | 1013.9 |
| 20260902074326 | 75 | 253 | 1.0 | 2.0 | 0.00 | 0.00 | 0.00 | 76 | 1013.7 |
| 20260902073707 | 75 | 253 | 2.0 | 3.0 | 0.00 | 0.00 | 0.00 | 76 | 1013.7 |
| 20260902072328 | 75 | 238 | 1.0 | 2.0 | 0.00 | 0.00 | 0.00 | 76 | 1013.6 |
| 20260902071334 | 75 | 259 | 1.0 | 2.0 | 0.00 | 0.00 | 0.00 | 76 | 1013.7 |
| 20260902070332 | 75 | 258 | 1.0 | 2.0 | 0.00 | 0.00 | 0.00 | 75 | 1013.7 |
| 20260902065338 | 76 | 258 | 1.0 | 2.0 | 0.00 | 0.00 | 0.00 | 74 | 1013.8 |
| 20260902064325 | 76 | 229 | 0.0 | 2.0 | 0.00 | 0.00 | 0.00 | 74 | 1013.8 |
| 20260902063324 | 76 | 197 | 0.0 | 3.0 | 0.00 | 0.00 | 0.00 | 73 | 1013.9 |
| 20260902062330 | 76 | 218 | 1.0 | 3.0 | 0.00 | 0.00 | 0.00 | 73 | 1013.9 |
| 20260902061355 | 76 | 193 | 1.0 | 4.0 | 0.00 | 0.00 | 0.00 | 73 | 1013.9 |
| 20260902060332 | 76 | 204 | 1.0 | 3.0 | 0.00 | 0.00 | 0.00 | 73 | 1013.8 |
| 20260902055339 | 76 | 198 | 1.0 | 4.0 | 0.00 | 0.00 | 0.00 | 73 | 1013.9 |
| 20260902054327 | 76 | 211 | 1.0 | 3.0 | 0.00 | 0.00 | 0.00 | 73 | 1014.0 |
| 20260902053346 | 76 | 205 | 1.0 | 3.0 | 0.00 | 0.00 | 0.00 | 74 | 1014.0 |
| 20260902052326 | 76 | 211 | 0.0 | 2.0 | 0.00 | 0.00 | 0.00 | 74 | 1014.0 |
| 20260902051352 | 76 | 187 | 1.0 | 2.0 | 0.00 | 0.00 | 0.00 | 74 | 1014.1 |
| 20260902050330 | 76 | 208 | 0.0 | 2.0 | 0.00 | 0.00 | 0.00 | 74 | 1014.2 |
| 20260902045330 | 76 | 207 | 0.0 | 1.0 | 0.00 | 0.00 | 0.00 | 73 | 1014.1 |
| 20260902044324 | 77 | 205 | 0.0 | 0.0 | 0.00 | 0.00 | 0.00 | 72 | 1014.3 |
| 20260902043341 | 77 | 205 | 0.0 | 0.0 | 0.00 | 0.00 | 0.00 | 70 | 1014.3 |
| 20260902042327 | 78 | 205 | 0.0 | 0.0 | 0.00 | 0.00 | 0.00 | 69 | 1014.2 |
| 20260902041352 | 78 | 205 | 0.0 | 0.0 | 0.00 | 0.00 | 0.00 | 69 | 1014.1 |
| 20260902040329 | 78 | 205 | 0.0 | 1.0 | 0.00 | 0.00 | 0.00 | 68 | 1013.9 |
| 20260902035336 | 79 | 205 | 0.0 | 2.0 | 0.00 | 0.00 | 0.00 | 68 | 1013.9 |
| 20260902034322 | 79 | 204 | 0.0 | 2.0 | 0.00 | 0.00 | 0.00 | 68 | 1013.9 |
| 20260902033322 | 80 | 210 | 1.0 | 2.0 | 0.00 | 0.00 | 0.00 | 67 | 1013.8 |
| 20260902032329 | 80 | 208 | 1.0 | 4.0 | 0.00 | 0.00 | 0.00 | 67 | 1013.7 |
| 20260902031335 | 80 | 204 | 1.0 | 3.0 | 0.00 | 0.00 | 0.00 | 66 | 1013.6 |
| 20260902030334 | 81 | 219 | 1.0 | 2.0 | 0.00 | 0.00 | 0.00 | 65 | 1013.5 |
| 20260902025939 | 81 | 185 | 0.0 | 3.0 | 0.00 | 0.00 | 0.00 | 64 | 1013.4 |
| 20260902024329 | 82 | 219 | 1.0 | 4.0 | 0.00 | 0.00 | 0.00 | 63 | 1013.4 |
| 20260902023327 | 82 | 208 | 1.0 | 3.0 | 0.00 | 0.00 | 0.00 | 63 | 1013.2 |
| 20260902022332 | 83 | 195 | 2.0 | 4.0 | 0.00 | 0.00 | 0.00 | 62 | 1013.1 |
| 20260902021339 | 83 | 175 | 2.0 | 7.0 | 0.00 | 0.00 | 0.00 | 62 | 1012.9 |
| 20260902020339 | 83 | 202 | 1.0 | 5.0 | 0.00 | 0.00 | 0.00 | 62 | 1012.8 |
| 20260902015325 | 83 | 203 | 3.0 | 6.0 | 0.00 | 0.00 | 0.00 | 62 | 1012.8 |
| 20260902014332 | 83 | 155 | 2.0 | 5.0 | 0.00 | 0.00 | 0.00 | 62 | 1012.8 |
| 20260902013331 | 84 | 153 | 2.0 | 5.0 | 0.00 | 0.00 | 0.00 | 62 | 1012.8 |
| 20260902012359 | 84 | 191 | 1.0 | 3.0 | 0.00 | 0.00 | 0.00 | 61 | 1012.7 |
| 20260902011327 | 85 | 205 | 0.0 | 4.0 | 0.00 | 0.00 | 0.00 | 60 | 1012.7 |
| 20260902010324 | 86 | 204 | 0.0 | 3.0 | 0.00 | 0.00 | 0.00 | 58 | 1012.6 |
| 20260902005322 | 88 | 200 | 0.0 | 2.0 | 0.00 | 0.00 | 0.00 | 55 | 1012.7 |
| 20260902004350 | 90 | 130 | 0.0 | 2.0 | 0.00 | 0.00 | 0.00 | 52 | 1012.6 |
| 20260902003329 | 92 | 141 | 0.0 | 2.0 | 0.00 | 0.00 | 0.00 | 49 | 1012.6 |
| 20260902002334 | 94 | 189 | 0.0 | 3.0 | 0.00 | 0.00 | 0.00 | 47 | 1012.6 |
| 20260902001321 | 95 | 198 | 1.0 | 4.0 | 0.00 | 0.00 | 0.00 | 47 | 1012.7 |
| 20260902000339 | 96 | 208 | 1.0 | 4.0 | 0.00 | 0.00 | 0.00 | 46 | 1012.9 |
| 20260901235320 | 97 | 234 | 2.0 | 3.0 | 0.00 | 0.00 | 0.00 | 45 | 1012.9 |
| 20260901234329 | 97 | 200 | 2.0 | 6.0 | 0.00 | 0.00 | 0.00 | 45 | 1012.9 |
| 20260901233345 | 97 | 211 | 2.0 | 8.0 | 0.00 | 0.00 | 0.00 | 46 | 1013.0 |
| 20260901232326 | 97 | 248 | 3.0 | 7.0 | 0.00 | 0.00 | 0.00 | 45 | 1013.1 |
| 20260901231441 | 97 | 201 | 5.0 | 10.0 | 0.00 | 0.00 | 0.00 | 44 | 1013.0 |
| 20260901230711 | 97 | 207 | 3.0 | 8.0 | 0.00 | 0.00 | 0.00 | 44 | 1013.1 |
| 20260901225327 | 97 | 203 | 5.0 | 11.0 | 0.00 | 0.00 | 0.00 | 43 | 1013.1 |
| 20260901224324 | 97 | 211 | 7.0 | 12.0 | 0.00 | 0.00 | 0.00 | 41 | 1013.1 |
| 20260901223323 | 97 | 217 | 6.0 | 13.0 | 0.00 | 0.00 | 0.00 | 42 | 1013.1 |
| 20260901222328 | 98 | 208 | 8.0 | 13.0 | 0.00 | 0.00 | 0.00 | 41 | 1013.0 |
| 20260901221336 | 98 | 214 | 8.0 | 13.0 | 0.00 | 0.00 | 0.00 | 40 | 1013.0 |
| 20260901220333 | 98 | 203 | 10.0 | 15.0 | 0.00 | 0.00 | 0.00 | 39 | 1013.1 |
| 20260901215322 | 98 | 181 | 6.0 | 14.0 | 0.00 | 0.00 | 0.00 | 40 | 1013.2 |
| 20260901214328 | 98 | 226 | 8.0 | 16.0 | 0.00 | 0.00 | 0.00 | 39 | 1013.2 |
| 20260901213345 | 99 | 215 | 5.0 | 13.0 | 0.00 | 0.00 | 0.00 | 42 | 1013.2 |
| 20260901212326 | 99 | 195 | 8.0 | 14.0 | 0.00 | 0.00 | 0.00 | 40 | 1013.2 |
| 20260901211339 | 99 | 250 | 6.0 | 16.0 | 0.00 | 0.00 | 0.00 | 42 | 1013.2 |
| 20260901210358 | 99 | 172 | 8.0 | 15.0 | 0.00 | 0.00 | 0.00 | 40 | 1013.3 |
| 20260901205324 | 99 | 166 | 7.0 | 13.0 | 0.00 | 0.00 | 0.00 | 41 | 1013.4 |
| 20260901204331 | 99 | 184 | 8.0 | 13.0 | 0.00 | 0.00 | 0.00 | 40 | 1013.4 |
| 20260901203329 | 99 | 211 | 7.0 | 14.0 | 0.00 | 0.00 | 0.00 | 42 | 1013.7 |
| 20260901202332 | 99 | 201 | 6.0 | 15.0 | 0.00 | 0.00 | 0.00 | 42 | 1013.8 |
| 20260901201339 | 99 | 211 | 8.0 | 15.0 | 0.00 | 0.00 | 0.00 | 40 | 1013.9 |
| 20260901200337 | 99 | 195 | 5.0 | 11.0 | 0.00 | 0.00 | 0.00 | 43 | 1014.0 |
| 20260901195710 | 99 | 217 | 6.0 | 13.0 | 0.00 | 0.00 | 0.00 | 43 | 1014.1 |
| 20260901194940 | 99 | 218 | 8.0 | 14.0 | 0.00 | 0.00 | 0.00 | 42 | 1014.1 |